This is the latest recevied weather packets stored in our database for station/object K0GDI. If no packets are shown the sender has not sent any weather packets the latest 10 day(s).
| Time | Temp. | Humidity | Pressure | Rain* | Wind** | Luminosity | Snow |
|---|---|---|---|---|---|---|---|
| 1788134287 | 29.44° C | 52% | 1017 hPa | 0 mm | 0.89 m/s, 161° | - | - |
| 1788133673 | 29.44° C | 50% | 1017 hPa | 0 mm | 1.34 m/s, 154° | - | - |
| 1788133058 | 30° C | 49% | 1017 hPa | 0 mm | 1.34 m/s, 158° | - | - |
| 1788132444 | 30.56° C | 48% | 1017 hPa | 0 mm | 0.89 m/s, 158° | - | - |
| 1788131829 | 30.56° C | 45% | 1017 hPa | 0 mm | 1.34 m/s, 150° | - | - |
| 1788131216 | 31.11° C | 44% | 1017 hPa | 0 mm | 1.79 m/s, 149° | - | - |
| 1788130602 | 31.11° C | 43% | 1017 hPa | 0 mm | 1.79 m/s, 150° | - | - |
| 1788129988 | 31.11° C | 44% | 1017 hPa | 0 mm | 1.34 m/s, 153° | - | - |
| 1788128759 | 31.67° C | 45% | 1017 hPa | 0 mm | 1.79 m/s, 147° | - | - |
| 1788128145 | 31.67° C | 45% | 1017 hPa | 0 mm | 1.79 m/s, 151° | - | - |
| 1788127531 | 31.67° C | 45% | 1017 hPa | 0 mm | 1.79 m/s, 151° | - | - |
| 1788126917 | 32.22° C | 46% | 1017 hPa | 0 mm | 1.34 m/s, 144° | - | - |
| 1788126302 | 32.78° C | 43% | 1017 hPa | 0 mm | 1.79 m/s, 145° | - | - |
| 1788125689 | 32.78° C | 40% | 1017 hPa | 0 mm | 1.79 m/s, 144° | - | - |
| 1788125074 | 32.78° C | 40% | 1017 hPa | 0 mm | 1.34 m/s, 145° | - | - |
| 1788123846 | 33.33° C | 38% | 1017 hPa | 0 mm | 2.24 m/s, 141° | - | - |
| 1788123232 | 33.89° C | 38% | 1017 hPa | 0 mm | 1.34 m/s, 148° | - | - |
| 1788122618 | 33.33° C | 38% | 1017 hPa | 0 mm | 1.34 m/s, 144° | - | - |
| 1788122003 | 33.33° C | 37% | 1017 hPa | 0 mm | 1.79 m/s, 148° | - | - |
| 1788121389 | 33.33° C | 40% | 1017 hPa | 0 mm | 1.79 m/s, 141° | - | - |
| 1788120775 | 33.89° C | 39% | 1017 hPa | 0 mm | 1.79 m/s, 142° | - | - |
| 1788120161 | 34.44° C | 37% | 1017 hPa | 0 mm | 0.89 m/s, 150° | - | - |
| 1788119547 | 33.89° C | 37% | 1017 hPa | 0 mm | 0.89 m/s, 155° | - | - |
| 1788118340 | 33.89° C | 40% | 1017 hPa | 0 mm | 1.34 m/s, 146° | - | - |
| 1788117132 | 33.33° C | 40% | 1017 hPa | 0 mm | 1.34 m/s, 146° | - | - |
* Rain latest hour (hover to see other rain measurements)
** Current wind speed in m/s (hover to see current wind gust speed)